Time;durP1;ratioP1;P1;durP2;ratioP2;P2;SDS_P1;SDS_P2;PMS_P1;PMS_P2;Temp;Humidity;BMP_temperature;BMP_pressure;BME280_temperature;BME280_humidity;BME280_pressure;Samples;Min_cycle;Max_cycle;Signal;HPM_P1;HPM_P2
2021/04/03 00:01:12;;;;;;;;;;;20.60;99.90;;;;;;5064211;28;19917;-79
2021/04/03 00:03:40;;;;;;;;;;;20.70;99.90;;;;;;5067507;28;20371;-79
2021/04/03 00:06:06;;;;;;;;;;;20.80;99.90;;;;;;5058123;28;19913;-79
2021/04/03 00:08:33;;;;;;;;;;;20.80;99.90;;;;;;5063815;28;19920;-79
2021/04/03 00:11:05;;;;;;;;;;;20.90;99.90;;;;;;5066589;28;19909;-78
2021/04/03 00:13:33;;;;;;;;;;;21.00;99.90;;;;;;5068138;28;20017;-77
2021/04/03 00:16:00;;;;;;;;;;;21.00;99.90;;;;;;5068255;28;19931;-77
2021/04/03 00:18:27;;;;;;;;;;;21.00;99.90;;;;;;5067773;28;19962;-77
2021/04/03 00:20:54;;;;;;;;;;;20.90;99.90;;;;;;5067323;28;19912;-77
2021/04/03 00:23:21;;;;;;;;;;;21.00;99.90;;;;;;5064780;28;19920;-79
2021/04/03 00:25:48;;;;;;;;;;;21.10;99.90;;;;;;5068161;28;19919;-79
2021/04/03 00:28:15;;;;;;;;;;;21.20;99.90;;;;;;5065770;28;19928;-80
2021/04/03 00:30:42;;;;;;;;;;;21.30;99.90;;;;;;5052896;28;19916;-78
2021/04/03 00:33:08;;;;;;;;;;;21.30;99.90;;;;;;5055265;28;19913;-79
2021/04/03 00:35:40;;;;;;;;;;;21.30;99.90;;;;;;5053799;28;19916;-79
2021/04/03 00:38:08;;;;;;;;;;;21.30;99.90;;;;;;5063362;28;19925;-78
2021/04/03 00:40:39;;;;;;;;;;;21.30;99.90;;;;;;5055036;28;19909;-78
2021/04/03 00:43:08;;;;;;;;;;;21.40;99.90;;;;;;5054692;28;19920;-78
2021/04/03 00:45:36;;;;;;;;;;;21.50;99.90;;;;;;5054954;28;20012;-79
2021/04/03 00:48:03;;;;;;;;;;;21.50;99.90;;;;;;5054618;28;19917;-79
2021/04/03 00:50:34;;;;;;;;;;;21.50;99.90;;;;;;5054570;28;19920;-80
2021/04/03 00:53:01;;;;;;;;;;;21.50;99.90;;;;;;5054508;28;19920;-79
2021/04/03 00:55:28;;;;;;;;;;;21.60;99.90;;;;;;5054984;28;19982;-79
2021/04/03 00:57:55;;;;;;;;;;;21.80;99.90;;;;;;5055115;28;19924;-80
2021/04/03 01:00:22;;;;;;;;;;;22.00;99.90;;;;;;5055188;28;19920;-79
2021/04/03 01:02:49;;;;;;;;;;;22.20;99.90;;;;;;5054303;28;20003;-79
2021/04/03 01:05:18;;;;;;;;;;;22.40;99.90;;;;;;5053116;28;19919;-79
2021/04/03 01:07:44;;;;;;;;;;;22.50;99.90;;;;;;5055447;28;19913;-79
2021/04/03 01:10:16;;;;;;;;;;;22.60;99.90;;;;;;5054839;28;19912;-80
2021/04/03 01:13:00;;;;;;;;;;;22.50;99.90;;;;;;5054829;28;19912;-80
2021/04/03 01:15:53;;;;;;;;;;;22.50;99.90;;;;;;5035214;28;19987;-79
2021/04/03 01:18:24;;;;;;;;;;;22.60;99.90;;;;;;5039000;28;19927;-80
2021/04/03 01:21:01;;;;;;;;;;;22.60;99.90;;;;;;5054400;28;19966;-79
2021/04/03 01:23:28;;;;;;;;;;;22.70;99.90;;;;;;5055581;28;20362;-78
2021/04/03 01:25:55;;;;;;;;;;;22.80;99.90;;;;;;5055110;28;19916;-79
2021/04/03 01:28:40;;;;;;;;;;;23.20;99.90;;;;;;5053216;28;19925;-79
2021/04/03 01:31:07;;;;;;;;;;;23.60;99.90;;;;;;5049878;28;19913;-79
2021/04/03 01:33:35;;;;;;;;;;;24.00;99.90;;;;;;5053843;28;20397;-79
2021/04/03 01:36:03;;;;;;;;;;;23.90;99.90;;;;;;5054123;28;19956;-81
2021/04/03 01:38:36;;;;;;;;;;;23.70;99.90;;;;;;5054006;28;19935;-81
2021/04/03 01:41:03;;;;;;;;;;;23.60;99.90;;;;;;5053106;28;19909;-76
2021/04/03 01:43:34;;;;;;;;;;;23.50;99.90;;;;;;5053647;28;20389;-82
2021/04/03 01:46:05;;;;;;;;;;;23.60;99.90;;;;;;5053445;28;19913;-80
2021/04/03 01:48:33;;;;;;;;;;;23.50;99.90;;;;;;5052438;28;19936;-84
2021/04/03 01:51:01;;;;;;;;;;;23.60;99.90;;;;;;5053893;28;19908;-82
2021/04/03 01:53:29;;;;;;;;;;;23.60;99.90;;;;;;5053827;28;20035;-80
2021/04/03 01:55:57;;;;;;;;;;;23.50;99.90;;;;;;5053891;28;19919;-82
2021/04/03 01:58:24;;;;;;;;;;;23.30;99.90;;;;;;5053912;28;19917;-79
2021/04/03 02:00:51;;;;;;;;;;;23.20;99.90;;;;;;5053394;28;19909;-83
2021/04/03 02:03:18;;;;;;;;;;;23.20;99.90;;;;;;5053401;28;20339;-83
2021/04/03 02:05:46;;;;;;;;;;;23.30;99.90;;;;;;5053457;28;19909;-78
2021/04/03 02:08:14;;;;;;;;;;;23.40;99.90;;;;;;5053145;28;19912;-77
2021/04/03 02:10:41;;;;;;;;;;;23.70;99.90;;;;;;5052641;28;19961;-77
2021/04/03 02:13:08;;;;;;;;;;;23.70;99.90;;;;;;5053199;28;19921;-79
2021/04/03 02:15:35;;;;;;;;;;;23.80;99.90;;;;;;5053074;28;20362;-77
2021/04/03 02:18:04;;;;;;;;;;;23.80;99.90;;;;;;5053149;28;20050;-78
2021/04/03 02:20:31;;;;;;;;;;;23.90;99.90;;;;;;5053330;28;19962;-78
2021/04/03 02:22:57;;;;;;;;;;;24.00;99.90;;;;;;5053475;28;19916;-77
2021/04/03 02:25:24;;;;;;;;;;;24.00;99.90;;;;;;5052814;28;19931;-81
2021/04/03 02:27:51;;;;;;;;;;;23.90;99.90;;;;;;5052655;28;20359;-82
2021/04/03 02:30:19;;;;;;;;;;;23.80;99.90;;;;;;5051868;28;19913;-77
2021/04/03 02:32:46;;;;;;;;;;;23.80;99.90;;;;;;5051371;28;19917;-80
2021/04/03 02:35:13;;;;;;;;;;;23.90;99.90;;;;;;5052488;28;19913;-84
2021/04/03 02:37:40;;;;;;;;;;;23.90;99.90;;;;;;5053274;28;19921;-77
2021/04/03 02:40:08;;;;;;;;;;;23.90;99.90;;;;;;5053703;28;19999;-80
2021/04/03 02:42:39;;;;;;;;;;;23.90;99.90;;;;;;5052925;28;20363;-81
2021/04/03 02:45:08;;;;;;;;;;;23.90;99.90;;;;;;5054527;28;20278;-78
2021/04/03 02:47:38;;;;;;;;;;;24.00;99.90;;;;;;5067632;28;19920;-81
2021/04/03 02:50:08;;;;;;;;;;;23.90;99.90;;;;;;5053141;28;19909;-78
2021/04/03 02:52:36;;;;;;;;;;;23.90;99.90;;;;;;5052747;28;20359;-78
2021/04/03 02:55:03;;;;;;;;;;;23.90;99.90;;;;;;5053441;28;20003;-82
2021/04/03 02:57:31;;;;;;;;;;;23.90;99.90;;;;;;5052260;28;20320;-80
2021/04/03 02:59:58;;;;;;;;;;;23.90;99.90;;;;;;5053466;28;19908;-77
2021/04/03 03:02:26;;;;;;;;;;;23.90;99.90;;;;;;5053472;28;19916;-82
2021/04/03 03:04:56;;;;;;;;;;;24.00;99.90;;;;;;5053295;28;19916;-81
2021/04/03 03:07:24;;;;;;;;;;;23.90;99.90;;;;;;5055312;28;19919;-76
2021/04/03 03:09:52;;;;;;;;;;;24.10;99.90;;;;;;5069933;28;19909;-78
2021/04/03 03:12:21;;;;;;;;;;;24.00;99.90;;;;;;5055744;28;20088;-79
2021/04/03 03:14:48;;;;;;;;;;;23.90;99.90;;;;;;5055403;28;19920;-78
2021/04/03 03:17:15;;;;;;;;;;;23.90;99.90;;;;;;5071227;28;19985;-78
2021/04/03 03:19:42;;;;;;;;;;;24.00;99.90;;;;;;5056268;28;19956;-78
2021/04/03 03:22:09;;;;;;;;;;;24.00;99.90;;;;;;5052929;28;19955;-77
2021/04/03 03:24:37;;;;;;;;;;;24.10;99.90;;;;;;5053047;28;20296;-78
2021/04/03 03:27:05;;;;;;;;;;;24.10;99.90;;;;;;5053042;28;19909;-80
2021/04/03 03:29:33;;;;;;;;;;;24.20;99.90;;;;;;5052908;28;19925;-81
2021/04/03 03:32:00;;;;;;;;;;;24.10;99.90;;;;;;5052991;28;19909;-80
2021/04/03 03:34:26;;;;;;;;;;;24.00;99.90;;;;;;5051368;28;19970;-79
2021/04/03 03:36:53;;;;;;;;;;;24.10;99.90;;;;;;5052839;28;20352;-77
2021/04/03 03:39:21;;;;;;;;;;;24.10;99.90;;;;;;5052885;28;19908;-80
2021/04/03 03:41:48;;;;;;;;;;;24.10;99.90;;;;;;5053051;28;19913;-77
2021/04/03 03:44:15;;;;;;;;;;;24.00;99.90;;;;;;5065063;28;20256;-76
2021/04/03 03:46:41;;;;;;;;;;;23.90;99.90;;;;;;5064377;28;20266;-79
2021/04/03 03:49:08;;;;;;;;;;;23.90;99.90;;;;;;5051287;28;19970;-79
2021/04/03 03:51:35;;;;;;;;;;;23.90;99.90;;;;;;5052808;28;19909;-78
2021/04/03 03:54:01;;;;;;;;;;;23.90;99.90;;;;;;5052821;28;20019;-82
2021/04/03 03:56:29;;;;;;;;;;;23.90;99.90;;;;;;5052608;28;20003;-78
2021/04/03 03:58:55;;;;;;;;;;;24.00;99.90;;;;;;5069552;28;19925;-77
2021/04/03 04:01:22;;;;;;;;;;;24.00;99.90;;;;;;5064018;28;19972;-79
2021/04/03 04:03:49;;;;;;;;;;;24.00;99.90;;;;;;5051899;28;19909;-78
2021/04/03 04:06:15;;;;;;;;;;;23.90;99.90;;;;;;5056361;28;19916;-81
2021/04/03 04:08:43;;;;;;;;;;;23.90;99.90;;;;;;5056193;28;20278;-80
2021/04/03 04:11:10;;;;;;;;;;;23.90;99.90;;;;;;5056475;28;19909;-80
2021/04/03 04:13:37;;;;;;;;;;;23.90;99.90;;;;;;5056231;28;19916;-81
2021/04/03 04:16:04;;;;;;;;;;;24.00;99.90;;;;;;5056228;28;20371;-79
2021/04/03 04:18:31;;;;;;;;;;;23.80;99.90;;;;;;5055787;28;19993;-80
2021/04/03 04:20:59;;;;;;;;;;;23.90;99.90;;;;;;5056302;28;19916;-77
2021/04/03 04:23:26;;;;;;;;;;;24.00;99.90;;;;;;5056229;28;20381;-81
2021/04/03 04:25:52;;;;;;;;;;;23.90;99.90;;;;;;5056186;28;19912;-81
2021/04/03 04:28:19;;;;;;;;;;;23.80;99.90;;;;;;5056088;28;19921;-80
2021/04/03 04:30:46;;;;;;;;;;;23.80;99.90;;;;;;5056013;28;20352;-77
2021/04/03 04:33:12;;;;;;;;;;;23.70;99.90;;;;;;5056007;28;19909;-77
2021/04/03 04:35:39;;;;;;;;;;;23.70;99.90;;;;;;5056008;28;19940;-77
2021/04/03 04:38:06;;;;;;;;;;;23.80;99.90;;;;;;5055834;28;19979;-77
2021/04/03 04:40:32;;;;;;;;;;;23.80;99.90;;;;;;5064531;28;20311;-77
2021/04/03 04:42:59;;;;;;;;;;;23.80;99.90;;;;;;5064979;28;20432;-79
2021/04/03 04:45:26;;;;;;;;;;;23.80;99.90;;;;;;5055799;28;19920;-79
2021/04/03 04:47:52;;;;;;;;;;;23.70;99.90;;;;;;5055634;28;20000;-79
2021/04/03 04:50:19;;;;;;;;;;;23.70;99.90;;;;;;5055903;28;19909;-81
2021/04/03 04:52:47;;;;;;;;;;;23.60;99.90;;;;;;5055484;28;19913;-80
2021/04/03 04:55:14;;;;;;;;;;;23.80;99.90;;;;;;5055607;28;20267;-79
2021/04/03 04:57:41;;;;;;;;;;;23.80;99.90;;;;;;5055657;28;19967;-81
2021/04/03 05:00:07;;;;;;;;;;;23.80;99.90;;;;;;5055842;28;19912;-81
2021/04/03 05:02:34;;;;;;;;;;;23.70;99.90;;;;;;5055764;28;19909;-82
2021/04/03 05:05:01;;;;;;;;;;;23.60;99.90;;;;;;5055946;28;19909;-81
2021/04/03 05:07:27;;;;;;;;;;;23.60;99.90;;;;;;5055786;28;19913;-81
2021/04/03 05:09:54;;;;;;;;;;;23.50;99.90;;;;;;5055746;28;19940;-82
2021/04/03 05:12:20;;;;;;;;;;;23.50;99.90;;;;;;5055418;28;19909;-80
2021/04/03 05:14:47;;;;;;;;;;;23.50;99.90;;;;;;5055575;28;20321;-82
2021/04/03 05:17:14;;;;;;;;;;;23.50;99.90;;;;;;5055418;28;19982;-81
2021/04/03 05:19:40;;;;;;;;;;;23.50;99.90;;;;;;5055762;28;20000;-80
2021/04/03 05:22:08;;;;;;;;;;;23.40;99.90;;;;;;5055554;28;20398;-79
2021/04/03 05:24:35;;;;;;;;;;;23.40;99.90;;;;;;5070342;28;20383;-79
2021/04/03 05:27:01;;;;;;;;;;;23.40;99.90;;;;;;5055018;28;19919;-78
2021/04/03 05:29:28;;;;;;;;;;;23.40;99.90;;;;;;5055249;28;19925;-79
2021/04/03 05:31:55;;;;;;;;;;;23.40;99.90;;;;;;5054830;28;19915;-80
2021/04/03 05:34:21;;;;;;;;;;;23.40;99.90;;;;;;5054823;28;20008;-79
2021/04/03 05:36:48;;;;;;;;;;;23.40;99.90;;;;;;5054655;28;19908;-81
2021/04/03 05:39:15;;;;;;;;;;;23.40;99.90;;;;;;5054891;28;19909;-81
2021/04/03 05:41:41;;;;;;;;;;;23.50;99.90;;;;;;5054567;28;19954;-80
2021/04/03 05:44:09;;;;;;;;;;;23.50;99.90;;;;;;5054993;28;19908;-81
2021/04/03 05:46:39;;;;;;;;;;;23.50;99.90;;;;;;5054588;28;19963;-79
2021/04/03 05:49:06;;;;;;;;;;;23.50;99.90;;;;;;5054831;28;19909;-81
2021/04/03 05:51:32;;;;;;;;;;;23.40;99.90;;;;;;5054682;28;20290;-77
2021/04/03 05:54:02;;;;;;;;;;;23.30;99.90;;;;;;5054337;28;20404;-78
2021/04/03 05:56:29;;;;;;;;;;;23.40;99.90;;;;;;5054422;28;19939;-79
2021/04/03 05:58:56;;;;;;;;;;;23.30;99.90;;;;;;5064156;28;19900;-79
2021/04/03 06:01:23;;;;;;;;;;;23.30;99.90;;;;;;5070283;28;19909;-81
2021/04/03 06:03:50;;;;;;;;;;;23.20;99.90;;;;;;5053228;28;19936;-81
2021/04/03 06:06:16;;;;;;;;;;;23.10;99.90;;;;;;5054241;28;19909;-80
2021/04/03 06:08:43;;;;;;;;;;;23.20;99.90;;;;;;5053938;28;19973;-77
2021/04/03 06:11:13;;;;;;;;;;;23.20;99.90;;;;;;5054245;28;19915;-79
2021/04/03 06:13:40;;;;;;;;;;;23.10;99.90;;;;;;5053977;28;19913;-78
2021/04/03 06:16:26;;;;;;;;;;;23.10;99.90;;;;;;5054214;28;19908;-78
2021/04/03 06:19:24;;;;;;;;;;;23.00;99.90;;;;;;5052803;28;19964;-79
2021/04/03 06:21:54;;;;;;;;;;;23.00;99.90;;;;;;5063480;28;19955;-82
2021/04/03 06:24:34;;;;;;;;;;;23.00;99.90;;;;;;5053933;28;19909;-79
2021/04/03 06:27:08;;;;;;;;;;;22.90;99.90;;;;;;5052001;28;19955;-76
2021/04/03 06:29:43;;;;;;;;;;;22.90;99.90;;;;;;5053775;28;19928;-81
2021/04/03 06:32:11;;;;;;;;;;;22.90;99.90;;;;;;5053772;28;20355;-80
2021/04/03 06:34:40;;;;;;;;;;;22.90;99.90;;;;;;5053621;28;19908;-79
2021/04/03 06:37:08;;;;;;;;;;;22.80;99.90;;;;;;5053841;28;19917;-77
2021/04/03 06:39:53;;;;;;;;;;;22.80;99.90;;;;;;5053968;28;19909;-77
2021/04/03 06:42:37;;;;;;;;;;;22.80;99.90;;;;;;5053576;28;19994;-81
2021/04/03 06:45:23;;;;;;;;;;;22.60;99.90;;;;;;5053517;28;19916;-80
2021/04/03 06:47:53;;;;;;;;;;;22.60;99.90;;;;;;5053424;28;20038;-81
2021/04/03 06:50:21;;;;;;;;;;;22.60;99.90;;;;;;5053685;28;19916;-79
2021/04/03 06:52:48;;;;;;;;;;;22.50;99.90;;;;;;5053188;28;19954;-77
2021/04/03 06:55:16;;;;;;;;;;;22.50;99.90;;;;;;5057025;28;19916;-80
2021/04/03 06:57:44;;;;;;;;;;;22.50;99.90;;;;;;5066924;28;19984;-78
2021/04/03 07:00:12;;;;;;;;;;;22.50;99.90;;;;;;5054816;28;19908;-76
2021/04/03 07:02:49;;;;;;;;;;;22.50;99.90;;;;;;5051701;28;20345;-77
2021/04/03 07:05:17;;;;;;;;;;;22.40;99.90;;;;;;5053108;28;19915;-78
2021/04/03 07:07:44;;;;;;;;;;;22.30;99.90;;;;;;5053302;28;20377;-78
2021/04/03 07:10:14;;;;;;;;;;;22.40;99.90;;;;;;5052954;28;19908;-81
2021/04/03 07:12:42;;;;;;;;;;;22.30;99.90;;;;;;5053257;28;19909;-79
2021/04/03 07:15:11;;;;;;;;;;;22.30;99.90;;;;;;5053423;28;19954;-81
2021/04/03 07:17:43;;;;;;;;;;;22.30;99.90;;;;;;5052741;28;20362;-79
2021/04/03 07:20:10;;;;;;;;;;;22.20;99.90;;;;;;5053094;28;19916;-81
2021/04/03 07:22:39;;;;;;;;;;;22.20;99.90;;;;;;5052805;28;19945;-81
2021/04/03 07:25:07;;;;;;;;;;;22.20;99.90;;;;;;5053118;28;19971;-77
2021/04/03 07:27:36;;;;;;;;;;;22.10;99.90;;;;;;5053071;28;20020;-80
2021/04/03 07:30:03;;;;;;;;;;;22.00;99.90;;;;;;5053339;28;19924;-77
2021/04/03 07:32:30;;;;;;;;;;;22.00;99.90;;;;;;5053259;28;19909;-82
2021/04/03 07:34:57;;;;;;;;;;;22.00;99.90;;;;;;5053265;28;19948;-78
2021/04/03 07:37:34;;;;;;;;;;;21.90;99.90;;;;;;5052701;28;20359;-80
2021/04/03 07:40:01;;;;;;;;;;;21.90;99.90;;;;;;5055560;28;19908;-80
2021/04/03 07:42:38;;;;;;;;;;;21.90;99.90;;;;;;5056638;28;20440;-78
2021/04/03 07:45:05;;;;;;;;;;;21.90;99.90;;;;;;5057011;28;19916;-81
2021/04/03 07:47:45;;;;;;;;;;;21.90;99.90;;;;;;5056816;28;20351;-78
2021/04/03 07:50:12;;;;;;;;;;;21.80;99.90;;;;;;5056811;28;19938;-78
2021/04/03 07:52:54;;;;;;;;;;;21.80;99.90;;;;;;5056460;28;19916;-81
2021/04/03 07:55:36;;;;;;;;;;;21.80;99.90;;;;;;5056645;28;19909;-79
2021/04/03 07:58:21;;;;;;;;;;;21.70;99.90;;;;;;5056448;28;20318;-78
2021/04/03 08:00:48;;;;;;;;;;;21.70;99.90;;;;;;5056324;28;19913;-81
2021/04/03 08:03:15;;;;;;;;;;;21.70;99.90;;;;;;5056461;28;19962;-81
2021/04/03 08:05:41;;;;;;;;;;;21.70;99.90;;;;;;5056593;28;19909;-81
2021/04/03 08:08:09;;;;;;;;;;;21.60;99.90;;;;;;5056554;28;19956;-77
2021/04/03 08:10:35;;;;;;;;;;;21.60;99.90;;;;;;5056057;28;19916;-80
2021/04/03 08:13:02;;;;;;;;;;;21.60;99.90;;;;;;5056707;28;19913;-78
2021/04/03 08:15:29;;;;;;;;;;;21.60;99.90;;;;;;5056316;28;20379;-78
2021/04/03 08:17:56;;;;;;;;;;;21.50;99.90;;;;;;5055977;28;19916;-78
2021/04/03 08:20:23;;;;;;;;;;;21.50;99.90;;;;;;5056273;28;20015;-80
2021/04/03 08:23:06;;;;;;;;;;;21.50;99.90;;;;;;5055889;28;19916;-78
2021/04/03 08:25:34;;;;;;;;;;;21.50;99.90;;;;;;5056268;28;19948;-81
2021/04/03 08:28:19;;;;;;;;;;;21.50;99.90;;;;;;5056730;28;20019;-82
2021/04/03 08:30:46;;;;;;;;;;;21.40;99.90;;;;;;5056062;28;20386;-80
2021/04/03 08:33:13;;;;;;;;;;;21.40;99.90;;;;;;5056708;28;19919;-80
2021/04/03 08:35:44;;;;;;;;;;;21.40;99.90;;;;;;5056104;28;19909;-77
2021/04/03 08:38:18;;;;;;;;;;;21.40;99.90;;;;;;5054932;28;20293;-82
2021/04/03 08:40:45;;;;;;;;;;;21.40;99.90;;;;;;5054729;28;19916;-80
2021/04/03 08:43:18;;;;;;;;;;;21.40;99.90;;;;;;5056375;28;19948;-80
2021/04/03 08:45:45;;;;;;;;;;;21.40;99.90;;;;;;5055915;28;20381;-79
2021/04/03 08:48:18;;;;;;;;;;;21.30;99.90;;;;;;5056035;28;19919;-78
2021/04/03 08:50:46;;;;;;;;;;;21.30;99.90;;;;;;5055367;28;19916;-81
2021/04/03 08:53:12;;;;;;;;;;;21.30;99.90;;;;;;5055868;28;20375;-77
2021/04/03 08:55:39;;;;;;;;;;;21.30;99.90;;;;;;5055905;28;19916;-80
2021/04/03 08:58:06;;;;;;;;;;;21.20;99.90;;;;;;5056237;28;19923;-81
2021/04/03 09:00:34;;;;;;;;;;;21.20;99.90;;;;;;5055655;28;19962;-80
2021/04/03 09:03:01;;;;;;;;;;;21.20;99.90;;;;;;5055925;28;19997;-78
2021/04/03 09:05:29;;;;;;;;;;;21.20;99.90;;;;;;5055649;28;19916;-79
2021/04/03 09:07:56;;;;;;;;;;;21.20;99.90;;;;;;5070993;28;20294;-80
2021/04/03 09:10:24;;;;;;;;;;;21.20;99.90;;;;;;5055614;28;19962;-80
2021/04/03 09:12:51;;;;;;;;;;;21.20;99.90;;;;;;5055655;28;19916;-77
2021/04/03 09:15:29;;;;;;;;;;;21.10;99.90;;;;;;5055826;28;19916;-79
2021/04/03 09:17:56;;;;;;;;;;;21.10;99.90;;;;;;5055476;28;19916;-79
2021/04/03 09:20:28;;;;;;;;;;;21.10;99.90;;;;;;5054055;28;19916;-79
2021/04/03 09:23:02;;;;;;;;;;;21.10;99.90;;;;;;5055239;28;19909;-82
2021/04/03 09:25:30;;;;;;;;;;;21.10;99.90;;;;;;5055419;28;19909;-82
2021/04/03 09:28:04;;;;;;;;;;;21.10;99.90;;;;;;5055323;28;20454;-82
2021/04/03 09:30:32;;;;;;;;;;;21.10;99.90;;;;;;5054899;28;19909;-81
2021/04/03 09:33:12;;;;;;;;;;;21.00;99.90;;;;;;5055285;28;19923;-78
2021/04/03 09:35:39;;;;;;;;;;;21.00;99.90;;;;;;5055194;28;20318;-78
2021/04/03 09:38:05;;;;;;;;;;;21.00;99.90;;;;;;5054718;28;20397;-82
2021/04/03 09:40:35;;;;;;;;;;;21.00;99.90;;;;;;5054876;28;20325;-79
2021/04/03 09:43:03;;;;;;;;;;;21.00;99.90;;;;;;5055197;28;20019;-80
2021/04/03 09:45:30;;;;;;;;;;;21.00;99.90;;;;;;5054847;28;19929;-80
2021/04/03 09:47:57;;;;;;;;;;;20.90;99.90;;;;;;5054852;28;19909;-81
2021/04/03 09:50:27;;;;;;;;;;;20.90;99.90;;;;;;5054889;28;19963;-78
2021/04/03 09:52:55;;;;;;;;;;;20.90;99.90;;;;;;5054909;28;20004;-81
2021/04/03 09:55:22;;;;;;;;;;;20.90;99.90;;;;;;5055582;28;19909;-79
2021/04/03 09:57:48;;;;;;;;;;;20.90;99.90;;;;;;5055382;28;19917;-78
2021/04/03 10:00:15;;;;;;;;;;;20.90;99.90;;;;;;5057607;28;19991;-79
2021/04/03 10:02:42;;;;;;;;;;;20.90;99.90;;;;;;5056658;28;19913;-79
2021/04/03 10:05:09;;;;;;;;;;;20.90;99.90;;;;;;5066567;28;19999;-77
2021/04/03 10:07:35;;;;;;;;;;;20.80;99.90;;;;;;5063221;28;20353;-80
2021/04/03 10:10:02;;;;;;;;;;;20.90;99.90;;;;;;5068663;28;19920;-75
2021/04/03 10:12:30;;;;;;;;;;;20.80;99.90;;;;;;5067736;28;19954;-76
2021/04/03 10:14:57;;;;;;;;;;;20.80;99.90;;;;;;5068874;28;19909;-77
2021/04/03 10:17:23;;;;;;;;;;;20.80;99.90;;;;;;5068240;28;19917;-76
2021/04/03 10:19:51;;;;;;;;;;;20.80;99.90;;;;;;5063254;28;20447;-80
2021/04/03 10:22:18;;;;;;;;;;;20.80;99.90;;;;;;5053055;28;19909;-78
2021/04/03 10:24:47;;;;;;;;;;;20.80;99.90;;;;;;5053761;28;19913;-81
2021/04/03 10:27:16;;;;;;;;;;;20.80;99.90;;;;;;5053794;28;20283;-80
2021/04/03 10:29:43;;;;;;;;;;;20.80;99.90;;;;;;5054247;28;20453;-78
2021/04/03 10:32:09;;;;;;;;;;;20.80;99.90;;;;;;5054234;28;19992;-81
2021/04/03 10:34:36;;;;;;;;;;;20.80;99.90;;;;;;5053656;28;19909;-81
2021/04/03 10:37:03;;;;;;;;;;;20.80;99.90;;;;;;5053826;28;19909;-81
2021/04/03 10:39:30;;;;;;;;;;;20.80;99.90;;;;;;5053829;28;19909;-80
2021/04/03 10:41:56;;;;;;;;;;;20.80;99.90;;;;;;5069512;28;19916;-78
2021/04/03 10:44:23;;;;;;;;;;;20.80;99.90;;;;;;5053919;28;19909;-81
2021/04/03 10:46:50;;;;;;;;;;;20.70;99.90;;;;;;5054072;28;19991;-82
2021/04/03 10:49:16;;;;;;;;;;;20.80;99.90;;;;;;5053641;28;20007;-82
2021/04/03 10:51:44;;;;;;;;;;;20.80;99.90;;;;;;5053634;28;19909;-78
2021/04/03 10:54:11;;;;;;;;;;;20.80;99.90;;;;;;5053738;28;19966;-78
2021/04/03 10:56:38;;;;;;;;;;;20.80;99.90;;;;;;5054580;28;20286;-81
2021/04/03 10:59:05;;;;;;;;;;;20.70;99.90;;;;;;5053037;28;19916;-77
2021/04/03 11:01:33;;;;;;;;;;;20.70;99.90;;;;;;5055784;28;19913;-81
2021/04/03 11:03:59;;;;;;;;;;;20.80;99.90;;;;;;5058423;28;19913;-78
2021/04/03 11:06:26;;;;;;;;;;;20.70;99.90;;;;;;5055537;28;19909;-78
2021/04/03 11:08:53;;;;;;;;;;;20.70;99.90;;;;;;5060780;28;19924;-78
2021/04/03 11:11:19;;;;;;;;;;;20.70;99.90;;;;;;5075115;28;19904;-81
2021/04/03 11:13:49;;;;;;;;;;;20.70;99.90;;;;;;5074596;28;19912;-80
2021/04/03 11:16:16;;;;;;;;;;;20.70;99.90;;;;;;5075177;28;19897;-82
2021/04/03 11:18:43;;;;;;;;;;;20.70;99.90;;;;;;5090930;28;19970;-80
2021/04/03 11:21:09;;;;;;;;;;;20.70;99.90;;;;;;5075453;28;19901;-81
2021/04/03 11:23:36;;;;;;;;;;;20.60;99.90;;;;;;5075029;28;19936;-81
2021/04/03 11:26:03;;;;;;;;;;;20.60;99.90;;;;;;5056350;28;20011;-83
2021/04/03 11:28:29;;;;;;;;;;;20.60;99.90;;;;;;5053221;28;19928;-85
2021/04/03 11:30:56;;;;;;;;;;;20.60;99.90;;;;;;5053360;28;19909;-79
2021/04/03 11:33:26;;;;;;;;;;;20.60;99.90;;;;;;5053401;28;19939;-82
2021/04/03 11:35:52;;;;;;;;;;;20.60;99.90;;;;;;5053039;28;19919;-79
2021/04/03 11:38:21;;;;;;;;;;;20.50;99.90;;;;;;5052966;28;19917;-81
2021/04/03 11:40:48;;;;;;;;;;;20.50;99.90;;;;;;5052979;28;19915;-81
2021/04/03 11:43:16;;;;;;;;;;;20.50;99.90;;;;;;5053162;28;19909;-82
2021/04/03 11:45:42;;;;;;;;;;;20.50;99.90;;;;;;5052943;28;20003;-82
2021/04/03 11:48:09;;;;;;;;;;;20.50;99.90;;;;;;5052936;28;20254;-82
2021/04/03 11:50:39;;;;;;;;;;;20.50;99.90;;;;;;5051473;28;20267;-84
2021/04/03 11:53:05;;;;;;;;;;;20.40;99.90;;;;;;5053111;28;20275;-80
2021/04/03 11:55:33;;;;;;;;;;;20.50;99.90;;;;;;5053168;28;20283;-81
2021/04/03 11:58:00;;;;;;;;;;;20.40;99.90;;;;;;5053208;28;20271;-83
2021/04/03 12:00:27;;;;;;;;;;;20.40;99.90;;;;;;5052672;28;19936;-82
2021/04/03 12:02:53;;;;;;;;;;;20.30;99.90;;;;;;5052937;28;19913;-81
2021/04/03 12:05:20;;;;;;;;;;;20.40;99.90;;;;;;5052839;28;20016;-83
2021/04/03 12:07:49;;;;;;;;;;;20.30;99.90;;;;;;5052820;28;19912;-80
2021/04/03 12:10:16;;;;;;;;;;;20.30;99.90;;;;;;5052653;28;19916;-80
2021/04/03 12:12:44;;;;;;;;;;;20.30;99.90;;;;;;5052492;28;20378;-82
2021/04/03 12:15:12;;;;;;;;;;;20.30;99.90;;;;;;5052701;28;19909;-83
2021/04/03 12:17:40;;;;;;;;;;;20.30;99.90;;;;;;5053048;28;19924;-82
2021/04/03 12:20:09;;;;;;;;;;;20.40;99.90;;;;;;5052736;28;19916;-82
2021/04/03 12:22:37;;;;;;;;;;;20.40;99.90;;;;;;5053013;28;20255;-83
2021/04/03 12:25:04;;;;;;;;;;;20.40;99.90;;;;;;5053800;28;19909;-84
2021/04/03 12:27:35;;;;;;;;;;;20.40;99.90;;;;;;5056411;28;19967;-78
2021/04/03 12:30:03;;;;;;;;;;;20.40;99.90;;;;;;5071403;28;19924;-80
2021/04/03 12:32:30;;;;;;;;;;;20.40;99.90;;;;;;5056365;28;19909;-79
2021/04/03 12:34:59;;;;;;;;;;;20.30;99.90;;;;;;5055987;28;19909;-77
2021/04/03 12:37:27;;;;;;;;;;;20.40;99.90;;;;;;5055813;28;19916;-78
2021/04/03 12:39:54;;;;;;;;;;;20.40;99.90;;;;;;5056014;28;19975;-79
2021/04/03 12:42:25;;;;;;;;;;;20.30;99.90;;;;;;5054935;28;19908;-78
2021/04/03 12:44:52;;;;;;;;;;;20.30;99.90;;;;;;5056033;28;20011;-78
2021/04/03 12:47:18;;;;;;;;;;;20.40;99.90;;;;;;5055963;28;19915;-78
2021/04/03 12:49:46;;;;;;;;;;;20.30;99.90;;;;;;5055896;28;20377;-79
2021/04/03 12:52:12;;;;;;;;;;;20.40;99.90;;;;;;5071221;28;19924;-78
2021/04/03 12:54:39;;;;;;;;;;;20.30;99.90;;;;;;5055436;28;19909;-79
2021/04/03 12:57:06;;;;;;;;;;;20.30;99.90;;;;;;5055490;28;19909;-80
2021/04/03 12:59:36;;;;;;;;;;;20.30;99.90;;;;;;5055467;28;19996;-77
2021/04/03 13:02:03;;;;;;;;;;;20.30;99.90;;;;;;5055622;28;19951;-77
2021/04/03 13:04:29;;;;;;;;;;;20.30;99.90;;;;;;5055208;28;19915;-78
2021/04/03 13:06:57;;;;;;;;;;;20.20;99.90;;;;;;5055376;28;19909;-80
2021/04/03 13:09:24;;;;;;;;;;;20.20;99.90;;;;;;5055590;28;20275;-78
2021/04/03 13:11:50;;;;;;;;;;;20.20;99.90;;;;;;5055463;28;19915;-80
2021/04/03 13:14:18;;;;;;;;;;;20.20;99.90;;;;;;5055440;28;19916;-80
2021/04/03 13:16:45;;;;;;;;;;;20.10;99.90;;;;;;5055316;28;20015;-81
2021/04/03 13:19:12;;;;;;;;;;;20.10;99.90;;;;;;5055378;28;19931;-81
2021/04/03 13:21:38;;;;;;;;;;;20.10;99.90;;;;;;5055649;28;19978;-78
2021/04/03 13:24:05;;;;;;;;;;;20.10;99.90;;;;;;5055473;28;20465;-79
2021/04/03 13:26:33;;;;;;;;;;;20.10;99.90;;;;;;5055613;28;19961;-78
2021/04/03 13:28:59;;;;;;;;;;;20.00;99.90;;;;;;5055414;28;19958;-79
2021/04/03 13:31:27;;;;;;;;;;;20.00;99.90;;;;;;5069651;28;19913;-82
2021/04/03 13:33:54;;;;;;;;;;;20.00;99.90;;;;;;5055611;28;20401;-81
2021/04/03 13:36:21;;;;;;;;;;;20.10;99.90;;;;;;5055868;28;20270;-78
2021/04/03 13:38:48;;;;;;;;;;;20.00;99.90;;;;;;5055598;28;19917;-81
2021/04/03 13:41:14;;;;;;;;;;;20.00;99.90;;;;;;5055753;28;19924;-78
2021/04/03 13:43:43;;;;;;;;;;;20.00;99.90;;;;;;5055501;28;19916;-79
2021/04/03 13:46:09;;;;;;;;;;;20.00;99.90;;;;;;5056214;28;19957;-82
2021/04/03 13:48:36;;;;;;;;;;;20.00;99.90;;;;;;5056534;28;20003;-79
2021/04/03 13:51:03;;;;;;;;;;;20.00;99.90;;;;;;5056847;28;19970;-77
2021/04/03 13:53:30;;;;;;;;;;;20.00;99.90;;;;;;5063942;28;19909;-77
2021/04/03 13:55:56;;;;;;;;;;;20.00;99.90;;;;;;5062394;28;20262;-82
2021/04/03 13:58:23;;;;;;;;;;;19.90;99.90;;;;;;5071133;28;20063;-76
2021/04/03 14:00:50;;;;;;;;;;;19.90;99.90;;;;;;5069926;28;19909;-77
2021/04/03 14:03:17;;;;;;;;;;;19.90;99.90;;;;;;5072553;28;19909;-75
2021/04/03 14:05:44;;;;;;;;;;;20.00;99.90;;;;;;5070360;28;20052;-76
2021/04/03 14:08:12;;;;;;;;;;;20.00;99.90;;;;;;5058624;28;19909;-80
2021/04/03 14:10:39;;;;;;;;;;;19.90;99.90;;;;;;5054450;28;19916;-78
2021/04/03 14:13:06;;;;;;;;;;;19.90;99.90;;;;;;5054199;28;19932;-81
2021/04/03 14:15:33;;;;;;;;;;;19.90;99.90;;;;;;5053955;28;19912;-78
2021/04/03 14:17:59;;;;;;;;;;;19.90;99.90;;;;;;5054045;28;20011;-78
2021/04/03 14:20:26;;;;;;;;;;;20.00;99.90;;;;;;5054183;28;20352;-78
2021/04/03 14:22:54;;;;;;;;;;;19.90;99.90;;;;;;5069284;28;20003;-78